Time;durP1;ratioP1;P1;durP2;ratioP2;P2;SDS_P1;SDS_P2;PMS_P1;PMS_P2;Temp;Humidity;BMP_temperature;BMP_pressure;BME280_temperature;BME280_humidity;BME280_pressure;Samples;Min_cycle;Max_cycle;Signal;HPM_P1;HPM_P2
2022/04/06 00:01:43;;;;;;;1.40;0.80;;;;;;;;;;5091983;28;20040;-62
2022/04/06 00:04:08;;;;;;;1.63;0.93;;;;;;;;;;5091838;28;20055;-63
2022/04/06 00:06:35;;;;;;;2.67;0.77;;;;;;;;;;5091005;28;20064;-62
2022/04/06 00:09:01;;;;;;;1.63;0.80;;;;;;;;;;5092241;28;20434;-62
2022/04/06 00:11:27;;;;;;;0.95;0.70;;;;;;;;;;5091534;28;20024;-62
2022/04/06 00:13:53;;;;;;;0.80;0.70;;;;;;;;;;5091641;28;20454;-63
2022/04/06 00:16:19;;;;;;;0.70;0.70;;;;;;;;;;5090983;28;20021;-63
2022/04/06 00:18:45;;;;;;;1.63;1.02;;;;;;;;;;5091635;28;20024;-62
2022/04/06 00:21:11;;;;;;;0.90;0.80;;;;;;;;;;5091658;28;20031;-62
2022/04/06 00:23:38;;;;;;;0.93;0.80;;;;;;;;;;5090959;28;20521;-62
2022/04/06 00:26:04;;;;;;;0.98;0.70;;;;;;;;;;5091860;28;20129;-62
2022/04/06 00:28:30;;;;;;;2.28;1.17;;;;;;;;;;5091174;28;20021;-62
2022/04/06 00:30:56;;;;;;;1.10;0.90;;;;;;;;;;5091385;28;20024;-62
2022/04/06 00:33:22;;;;;;;1.20;0.80;;;;;;;;;;5091461;28;20465;-62
2022/04/06 00:35:48;;;;;;;1.10;0.88;;;;;;;;;;5091749;28;20031;-62
2022/04/06 00:38:14;;;;;;;1.25;0.90;;;;;;;;;;5088469;28;20558;-62
2022/04/06 00:40:40;;;;;;;0.93;0.85;;;;;;;;;;5091649;28;20099;-62
2022/04/06 00:43:08;;;;;;;1.17;0.70;;;;;;;;;;5091772;28;20036;-62
2022/04/06 00:45:34;;;;;;;1.67;0.90;;;;;;;;;;5090897;28;20247;-62
2022/04/06 00:48:00;;;;;;;1.40;1.02;;;;;;;;;;5090860;28;20386;-62
2022/04/06 00:50:26;;;;;;;0.93;0.70;;;;;;;;;;5091012;28;20039;-62
2022/04/06 00:52:57;;;;;;;1.45;0.82;;;;;;;;;;5091336;28;20024;-62
2022/04/06 00:55:27;;;;;;;1.25;1.00;;;;;;;;;;5091073;28;20074;-62
2022/04/06 00:57:53;;;;;;;0.80;0.70;;;;;;;;;;5091739;28;20077;-63
2022/04/06 01:00:19;;;;;;;2.13;1.00;;;;;;;;;;5094793;28;20350;-62
2022/04/06 01:02:45;;;;;;;0.93;0.70;;;;;;;;;;5096304;28;20453;-62
2022/04/06 01:05:13;;;;;;;2.03;0.98;;;;;;;;;;5095496;28;20099;-62
2022/04/06 01:07:39;;;;;;;2.28;1.40;;;;;;;;;;5094938;28;20112;-62
2022/04/06 01:10:05;;;;;;;1.40;0.80;;;;;;;;;;5095211;28;20073;-62
2022/04/06 01:12:35;;;;;;;1.58;1.00;;;;;;;;;;5094406;28;20072;-62
2022/04/06 01:15:01;;;;;;;1.13;0.82;;;;;;;;;;5095486;28;20342;-62
2022/04/06 01:17:33;;;;;;;1.30;0.80;;;;;;;;;;5094258;28;20028;-62
2022/04/06 01:20:00;;;;;;;1.08;0.82;;;;;;;;;;5094300;28;20473;-63
2022/04/06 01:22:26;;;;;;;1.73;1.00;;;;;;;;;;5093887;28;20496;-62
2022/04/06 01:24:53;;;;;;;1.42;0.93;;;;;;;;;;5094887;28;20108;-62
2022/04/06 01:27:19;;;;;;;1.08;0.90;;;;;;;;;;5094246;28;20439;-61
2022/04/06 01:29:45;;;;;;;1.02;0.82;;;;;;;;;;5095171;28;20032;-62
2022/04/06 01:32:17;;;;;;;1.42;1.00;;;;;;;;;;5094904;28;20056;-62
2022/04/06 01:34:43;;;;;;;;;;;;;;;;;;5095213;28;20381;-62
2022/04/06 01:37:09;;;;;;;1.20;1.08;;;;;;;;;;5094640;28;19908;-62
2022/04/06 01:39:36;;;;;;;1.50;1.25;;;;;;;;;;5094042;28;20195;-62
2022/04/06 01:42:03;;;;;;;1.30;0.90;;;;;;;;;;5094897;28;20064;-62
2022/04/06 01:44:29;;;;;;;1.15;0.60;;;;;;;;;;5066686;28;20025;-62
2022/04/06 01:46:55;;;;;;;0.77;0.63;;;;;;;;;;5082485;28;20020;-62
2022/04/06 01:52:13;;;;;;;1.23;1.08;;;;;;;;;;5084574;28;20041;-62
2022/04/06 01:54:49;;;;;;;1.10;0.82;;;;;;;;;;5072740;28;20028;-62
2022/04/06 01:57:16;;;;;;;1.02;0.90;;;;;;;;;;5084463;28;20028;-61
2022/04/06 01:59:42;;;;;;;1.05;0.80;;;;;;;;;;5093805;28;20024;-62
2022/04/06 02:02:09;;;;;;;0.95;0.85;;;;;;;;;;5093926;28;20060;-62
2022/04/06 02:04:35;;;;;;;0.60;0.50;;;;;;;;;;5093364;28;20062;-62
2022/04/06 02:07:01;;;;;;;1.38;1.00;;;;;;;;;;5088885;28;20052;-62
2022/04/06 02:09:27;;;;;;;0.95;0.70;;;;;;;;;;5072817;28;20028;-62
2022/04/06 02:11:54;;;;;;;1.10;0.85;;;;;;;;;;5073845;28;20036;-64
2022/04/06 02:14:20;;;;;;;0.95;0.75;;;;;;;;;;5073044;28;20025;-62
2022/04/06 02:16:46;;;;;;;1.00;0.80;;;;;;;;;;5074960;28;20035;-62
2022/04/06 02:19:12;;;;;;;0.93;0.70;;;;;;;;;;5073645;28;20064;-62
2022/04/06 02:21:38;;;;;;;1.05;0.70;;;;;;;;;;5081066;28;20036;-62
2022/04/06 02:24:04;;;;;;;0.80;0.65;;;;;;;;;;5081269;28;20036;-62
2022/04/06 02:26:30;;;;;;;3.00;0.80;;;;;;;;;;5073500;28;20043;-62
2022/04/06 02:28:57;;;;;;;0.88;0.75;;;;;;;;;;5094135;28;20065;-62
2022/04/06 02:31:23;;;;;;;1.80;0.70;;;;;;;;;;5092819;28;20063;-62
2022/04/06 02:33:49;;;;;;;0.93;0.73;;;;;;;;;;5093547;28;20073;-63
2022/04/06 02:36:15;;;;;;;1.45;0.82;;;;;;;;;;5093379;28;20042;-62
2022/04/06 02:38:41;;;;;;;0.95;0.63;;;;;;;;;;5082082;28;20056;-62
2022/04/06 02:41:07;;;;;;;1.35;0.82;;;;;;;;;;5093232;28;20032;-63
2022/04/06 02:43:33;;;;;;;1.25;0.88;;;;;;;;;;5092701;28;20109;-63
2022/04/06 02:46:00;;;;;;;0.90;0.70;;;;;;;;;;5093319;28;20107;-63
2022/04/06 02:48:26;;;;;;;1.10;0.85;;;;;;;;;;5092503;28;20032;-62
2022/04/06 02:50:51;;;;;;;1.40;1.00;;;;;;;;;;5093632;28;20024;-62
2022/04/06 02:53:18;;;;;;;1.35;0.80;;;;;;;;;;5092787;28;20481;-62
2022/04/06 02:55:44;;;;;;;1.23;0.88;;;;;;;;;;5092888;28;20024;-62
2022/04/06 02:58:09;;;;;;;1.73;0.95;;;;;;;;;;5093149;28;20036;-62
2022/04/06 03:00:36;;;;;;;1.23;0.80;;;;;;;;;;5092391;28;20062;-61
2022/04/06 03:03:02;;;;;;;0.77;0.68;;;;;;;;;;5093020;28;20346;-62
2022/04/06 03:05:28;;;;;;;0.85;0.70;;;;;;;;;;5092398;28;20034;-62
2022/04/06 03:07:54;;;;;;;0.70;0.70;;;;;;;;;;5091765;28;20053;-62
2022/04/06 03:10:20;;;;;;;0.73;0.63;;;;;;;;;;5092390;28;20016;-61
2022/04/06 03:12:46;;;;;;;1.13;0.60;;;;;;;;;;5092443;28;20447;-62
2022/04/06 03:15:12;;;;;;;0.98;0.75;;;;;;;;;;5092719;28;20118;-64
2022/04/06 03:17:38;;;;;;;0.80;0.80;;;;;;;;;;5091872;28;20492;-62
2022/04/06 03:20:06;;;;;;;1.67;0.75;;;;;;;;;;5092129;28;20105;-62
2022/04/06 03:22:32;;;;;;;0.90;0.70;;;;;;;;;;5091625;28;20115;-62
2022/04/06 03:24:58;;;;;;;1.05;0.60;;;;;;;;;;5092241;28;20050;-62
2022/04/06 03:27:24;;;;;;;0.90;0.70;;;;;;;;;;5091971;28;20054;-62
2022/04/06 03:29:50;;;;;;;1.17;0.70;;;;;;;;;;5092965;28;20023;-62
2022/04/06 03:32:16;;;;;;;1.88;0.75;;;;;;;;;;5092787;28;20035;-62
2022/04/06 03:34:42;;;;;;;0.75;0.70;;;;;;;;;;5092027;28;20027;-62
2022/04/06 03:37:08;;;;;;;1.13;0.80;;;;;;;;;;5092998;28;20415;-62
2022/04/06 03:39:34;;;;;;;1.10;0.70;;;;;;;;;;5091514;28;20044;-62
2022/04/06 03:42:00;;;;;;;1.50;0.90;;;;;;;;;;5092666;28;20477;-63
2022/04/06 03:44:27;;;;;;;0.70;0.60;;;;;;;;;;5091643;28;20068;-62
2022/04/06 03:46:53;;;;;;;1.75;0.80;;;;;;;;;;5092246;28;20020;-62
2022/04/06 03:49:19;;;;;;;1.00;0.65;;;;;;;;;;5091658;28;20397;-61
2022/04/06 03:51:46;;;;;;;0.65;0.65;;;;;;;;;;5092172;28;20028;-62
2022/04/06 03:54:13;;;;;;;0.90;0.85;;;;;;;;;;5092124;28;20024;-62
2022/04/06 03:56:39;;;;;;;1.05;0.75;;;;;;;;;;5091487;28;20025;-62
2022/04/06 03:59:06;;;;;;;0.73;0.60;;;;;;;;;;5092393;28;20016;-62
2022/04/06 04:01:35;;;;;;;0.90;0.70;;;;;;;;;;5091192;28;20019;-62
2022/04/06 04:04:01;;;;;;;1.17;0.93;;;;;;;;;;5092145;28;20070;-62
2022/04/06 04:06:27;;;;;;;1.50;0.95;;;;;;;;;;5090933;28;20434;-62
2022/04/06 04:08:53;;;;;;;1.42;0.77;;;;;;;;;;5092185;28;20048;-62
2022/04/06 04:11:19;;;;;;;0.88;0.60;;;;;;;;;;5091519;28;20016;-61
2022/04/06 04:13:45;;;;;;;1.02;0.93;;;;;;;;;;5091400;28;20047;-62
2022/04/06 04:16:11;;;;;;;1.10;0.60;;;;;;;;;;5092187;28;20460;-62
2022/04/06 04:18:37;;;;;;;1.23;0.70;;;;;;;;;;5091418;28;20028;-62
2022/04/06 04:23:47;;;;;;;1.25;0.70;;;;;;;;;;5093007;28;20055;-62
2022/04/06 04:26:13;;;;;;;1.23;0.80;;;;;;;;;;5093291;28;20032;-62
2022/04/06 04:28:39;;;;;;;1.08;0.70;;;;;;;;;;5090908;28;20035;-62
2022/04/06 04:31:05;;;;;;;1.58;0.90;;;;;;;;;;5091754;28;20032;-62
2022/04/06 04:33:31;;;;;;;1.20;0.80;;;;;;;;;;5093105;28;20366;-62
2022/04/06 04:35:58;;;;;;;1.00;0.80;;;;;;;;;;5096056;28;20024;-62
2022/04/06 04:38:24;;;;;;;1.10;0.73;;;;;;;;;;5094857;28;20048;-61
2022/04/06 04:40:50;;;;;;;3.00;1.17;;;;;;;;;;5078001;28;20028;-63
2022/04/06 04:43:16;;;;;;;1.80;0.75;;;;;;;;;;5086890;28;20056;-63
2022/04/06 04:45:42;;;;;;;1.17;0.70;;;;;;;;;;5074981;28;20021;-63
2022/04/06 04:48:08;;;;;;;1.25;0.90;;;;;;;;;;5075245;28;20035;-63
2022/04/06 04:50:34;;;;;;;1.15;0.90;;;;;;;;;;5084179;28;20032;-63
2022/04/06 04:53:00;;;;;;;0.90;0.70;;;;;;;;;;5095328;28;20020;-63
2022/04/06 04:55:26;;;;;;;0.73;0.70;;;;;;;;;;5094628;28;20103;-62
2022/04/06 04:57:52;;;;;;;1.00;0.82;;;;;;;;;;5095136;28;20020;-63
2022/04/06 05:00:18;;;;;;;1.15;0.70;;;;;;;;;;5082336;28;20025;-63
2022/04/06 05:02:44;;;;;;;0.95;0.80;;;;;;;;;;5082060;28;20040;-62
2022/04/06 05:05:11;;;;;;;1.30;0.90;;;;;;;;;;5095565;28;20024;-62
2022/04/06 05:07:37;;;;;;;1.02;0.80;;;;;;;;;;5088970;28;20044;-62
2022/04/06 05:10:07;;;;;;;1.77;0.90;;;;;;;;;;5075422;28;20029;-63
2022/04/06 05:12:33;;;;;;;1.48;0.80;;;;;;;;;;5075268;28;20051;-62
2022/04/06 05:14:59;;;;;;;0.98;0.82;;;;;;;;;;5074760;28;20059;-64
2022/04/06 05:17:26;;;;;;;1.88;0.65;;;;;;;;;;5074246;28;20064;-62
2022/04/06 05:19:52;;;;;;;1.67;0.82;;;;;;;;;;5078785;28;20026;-62
2022/04/06 05:22:18;;;;;;;2.15;1.27;;;;;;;;;;5063234;28;20106;-63
2022/04/06 05:24:44;;;;;;;1.05;0.63;;;;;;;;;;5074277;28;20029;-62
2022/04/06 05:27:10;;;;;;;1.40;0.95;;;;;;;;;;5074957;28;20021;-63
2022/04/06 05:29:36;;;;;;;1.08;0.98;;;;;;;;;;5074014;28;20066;-63
2022/04/06 05:32:02;;;;;;;0.77;0.60;;;;;;;;;;5074563;28;20039;-62
2022/04/06 05:34:29;;;;;;;0.75;0.70;;;;;;;;;;5073560;28;20040;-62
2022/04/06 05:36:55;;;;;;;2.40;1.02;;;;;;;;;;5082370;28;20025;-62
2022/04/06 05:39:21;;;;;;;1.48;1.08;;;;;;;;;;5088042;28;20036;-61
2022/04/06 05:41:49;;;;;;;2.05;0.90;;;;;;;;;;5094188;28;20036;-62
2022/04/06 05:44:15;;;;;;;1.15;0.85;;;;;;;;;;5094062;28;20032;-62
2022/04/06 05:46:41;;;;;;;4.90;1.17;;;;;;;;;;5094168;28;20039;-63
2022/04/06 05:49:07;;;;;;;5.22;1.25;;;;;;;;;;5094106;28;20473;-62
2022/04/06 05:51:34;;;;;;;3.67;1.30;;;;;;;;;;5093932;28;20086;-63
2022/04/06 05:54:00;;;;;;;2.45;1.15;;;;;;;;;;5094271;28;20481;-64
2022/04/06 05:56:26;;;;;;;11.77;1.58;;;;;;;;;;5093544;28;20059;-64
2022/04/06 05:58:52;;;;;;;1.35;0.82;;;;;;;;;;5093937;28;20596;-63
2022/04/06 06:01:18;;;;;;;2.17;1.17;;;;;;;;;;5094607;28;20028;-62
2022/04/06 06:03:44;;;;;;;3.10;1.08;;;;;;;;;;5093127;28;20210;-63
2022/04/06 06:06:10;;;;;;;2.15;1.25;;;;;;;;;;5094605;28;20032;-64
2022/04/06 06:08:36;;;;;;;3.80;1.27;;;;;;;;;;5093386;28;20358;-63
2022/04/06 06:11:03;;;;;;;7.65;1.35;;;;;;;;;;5094021;28;20028;-62
2022/04/06 06:13:30;;;;;;;4.47;1.50;;;;;;;;;;5092127;28;20024;-63
2022/04/06 06:15:56;;;;;;;3.40;1.48;;;;;;;;;;5093515;28;20024;-65
2022/04/06 06:18:24;;;;;;;3.67;1.05;;;;;;;;;;5093659;28;20028;-63
2022/04/06 06:20:50;;;;;;;6.00;2.00;;;;;;;;;;5092897;28;20039;-61
2022/04/06 06:23:16;;;;;;;2.35;1.25;;;;;;;;;;5089851;28;20024;-61
2022/04/06 06:25:42;;;;;;;6.07;1.40;;;;;;;;;;5095608;28;20028;-61
2022/04/06 06:28:09;;;;;;;6.65;1.23;;;;;;;;;;5093588;28;20036;-60
2022/04/06 06:30:35;;;;;;;2.03;1.23;;;;;;;;;;5093119;28;20522;-61
2022/04/06 06:33:01;;;;;;;4.05;1.58;;;;;;;;;;5093675;28;20059;-61
2022/04/06 06:35:27;;;;;;;5.13;1.58;;;;;;;;;;5093051;28;20100;-61
2022/04/06 06:37:55;;;;;;;5.25;1.58;;;;;;;;;;5092235;28;20024;-60
2022/04/06 06:40:23;;;;;;;2.72;0.93;;;;;;;;;;5082401;28;20042;-61
2022/04/06 06:42:49;;;;;;;3.63;1.13;;;;;;;;;;5072653;28;20032;-60
2022/04/06 06:45:15;;;;;;;4.57;1.58;;;;;;;;;;5080954;28;20029;-60
2022/04/06 06:47:41;;;;;;;5.20;1.50;;;;;;;;;;5072439;28;20120;-60
2022/04/06 06:50:08;;;;;;;5.70;1.25;;;;;;;;;;5073543;28;20111;-61
2022/04/06 06:52:34;;;;;;;2.65;1.10;;;;;;;;;;5071240;28;20041;-61
2022/04/06 06:55:10;;;;;;;4.13;1.63;;;;;;;;;;5086549;28;20033;-61
2022/04/06 06:57:36;;;;;;;2.45;1.10;;;;;;;;;;5084093;28;20051;-61
2022/04/06 07:00:03;;;;;;;3.30;0.90;;;;;;;;;;5073493;28;20031;-61
2022/04/06 07:02:29;;;;;;;3.33;0.95;;;;;;;;;;5054695;28;20055;-61
2022/04/06 07:04:55;;;;;;;3.40;1.25;;;;;;;;;;5074209;28;20020;-60
2022/04/06 07:07:21;;;;;;;2.78;1.45;;;;;;;;;;5072942;28;20470;-61
2022/04/06 07:09:47;;;;;;;2.33;1.30;;;;;;;;;;5071669;28;20067;-60
2022/04/06 07:12:13;;;;;;;2.13;1.42;;;;;;;;;;5073128;28;20385;-61
2022/04/06 07:14:39;;;;;;;1.48;0.82;;;;;;;;;;5072172;28;20036;-60
2022/04/06 07:17:06;;;;;;;4.75;1.10;;;;;;;;;;5072653;28;20031;-61
2022/04/06 07:19:32;;;;;;;3.42;1.08;;;;;;;;;;5071198;28;20056;-61
2022/04/06 07:21:58;;;;;;;3.97;1.00;;;;;;;;;;5076925;28;20084;-61
2022/04/06 07:24:24;;;;;;;2.83;0.82;;;;;;;;;;5072846;28;20469;-61
2022/04/06 07:26:49;;;;;;;1.77;0.80;;;;;;;;;;5071947;28;20017;-61
2022/04/06 07:29:15;;;;;;;2.95;0.98;;;;;;;;;;5072507;28;20474;-60
2022/04/06 07:31:45;;;;;;;3.70;1.25;;;;;;;;;;5079644;28;20046;-60
2022/04/06 07:34:11;;;;;;;2.05;1.10;;;;;;;;;;5077328;28;20031;-61
2022/04/06 07:36:37;;;;;;;2.40;0.80;;;;;;;;;;5064516;28;20444;-60
2022/04/06 07:39:04;;;;;;;3.25;1.10;;;;;;;;;;5084512;28;20056;-60
2022/04/06 07:41:31;;;;;;;2.53;1.15;;;;;;;;;;5092515;28;20419;-60
2022/04/06 07:43:57;;;;;;;3.60;1.02;;;;;;;;;;5080888;28;20016;-61
2022/04/06 07:46:23;;;;;;;2.85;0.70;;;;;;;;;;5084559;28;20473;-61
2022/04/06 07:48:50;;;;;;;3.95;0.90;;;;;;;;;;5091675;28;20047;-60
2022/04/06 07:51:16;;;;;;;3.17;0.88;;;;;;;;;;5092372;28;20055;-61
2022/04/06 07:53:43;;;;;;;2.05;0.95;;;;;;;;;;5090665;28;20039;-61
2022/04/06 07:56:09;;;;;;;2.58;1.23;;;;;;;;;;5092132;28;20024;-61
2022/04/06 07:58:35;;;;;;;4.32;1.05;;;;;;;;;;5087817;28;20052;-61
2022/04/06 08:01:02;;;;;;;1.23;0.90;;;;;;;;;;5091759;28;20024;-60
2022/04/06 08:03:29;;;;;;;2.10;0.90;;;;;;;;;;5091307;28;20079;-61
2022/04/06 08:05:56;;;;;;;4.95;1.30;;;;;;;;;;5089744;28;20020;-61
2022/04/06 08:08:22;;;;;;;1.15;0.70;;;;;;;;;;5091697;28;20024;-61
2022/04/06 08:10:48;;;;;;;2.92;1.20;;;;;;;;;;5090985;28;20048;-61
2022/04/06 08:13:14;;;;;;;1.15;0.70;;;;;;;;;;5091982;28;20016;-61
2022/04/06 08:15:40;;;;;;;1.90;0.90;;;;;;;;;;5090138;28;20036;-61
2022/04/06 08:18:06;;;;;;;2.53;0.82;;;;;;;;;;5091593;28;20052;-61
2022/04/06 08:20:32;;;;;;;1.48;1.10;;;;;;;;;;5091427;28;20350;-61
2022/04/06 08:22:59;;;;;;;0.95;0.70;;;;;;;;;;5090997;28;20028;-61
2022/04/06 08:25:25;;;;;;;4.07;1.15;;;;;;;;;;5091507;28;20051;-61
2022/04/06 08:27:51;;;;;;;2.05;0.85;;;;;;;;;;5091031;28;20031;-61
2022/04/06 08:30:20;;;;;;;2.55;1.27;;;;;;;;;;5090974;28;20020;-60
2022/04/06 08:32:46;;;;;;;1.90;0.95;;;;;;;;;;5090402;28;20032;-61
2022/04/06 08:35:12;;;;;;;2.15;0.70;;;;;;;;;;5091416;28;20059;-61
2022/04/06 08:37:39;;;;;;;1.58;0.90;;;;;;;;;;5079780;28;20495;-61
2022/04/06 08:40:07;;;;;;;2.97;0.77;;;;;;;;;;5076292;28;20466;-60
2022/04/06 08:42:34;;;;;;;2.33;1.02;;;;;;;;;;5071159;28;20434;-61
2022/04/06 08:45:01;;;;;;;1.10;0.70;;;;;;;;;;5084786;28;20103;-61
2022/04/06 08:47:29;;;;;;;0.70;0.57;;;;;;;;;;5090647;28;20020;-61
2022/04/06 08:49:56;;;;;;;2.20;0.77;;;;;;;;;;5090616;28;20020;-61
2022/04/06 08:52:22;;;;;;;1.45;0.70;;;;;;;;;;5085662;28;20032;-60
2022/04/06 08:54:48;;;;;;;2.13;1.05;;;;;;;;;;5089486;28;20028;-61
2022/04/06 08:57:14;;;;;;;1.20;0.80;;;;;;;;;;5091381;28;20051;-61
2022/04/06 08:59:40;;;;;;;0.77;0.60;;;;;;;;;;5090948;28;20461;-61
2022/04/06 09:02:08;;;;;;;3.60;1.20;;;;;;;;;;5090287;28;20039;-61
2022/04/06 09:04:35;;;;;;;0.80;0.55;;;;;;;;;;5091225;28;20024;-61
2022/04/06 09:07:08;;;;;;;1.55;0.80;;;;;;;;;;5091273;28;20024;-61
2022/04/06 09:09:35;;;;;;;0.60;0.57;;;;;;;;;;5090621;28;20477;-61
2022/04/06 09:12:05;;;;;;;1.08;0.60;;;;;;;;;;5089926;28;20097;-61
2022/04/06 09:14:33;;;;;;;1.27;0.75;;;;;;;;;;5091004;28;20493;-61
2022/04/06 09:17:06;;;;;;;0.98;0.57;;;;;;;;;;5091220;28;20070;-61
2022/04/06 09:19:36;;;;;;;0.75;0.55;;;;;;;;;;5091931;28;20107;-61
2022/04/06 09:22:05;;;;;;;0.90;0.60;;;;;;;;;;5094873;28;20036;-61
2022/04/06 09:24:31;;;;;;;1.45;0.63;;;;;;;;;;5095213;28;20036;-61
2022/04/06 09:26:58;;;;;;;0.50;0.40;;;;;;;;;;5093879;28;20020;-61
2022/04/06 09:29:24;;;;;;;2.75;1.23;;;;;;;;;;5095064;28;20024;-61
2022/04/06 09:31:51;;;;;;;1.23;0.57;;;;;;;;;;5094249;28;20028;-61
2022/04/06 09:34:20;;;;;;;1.23;0.63;;;;;;;;;;5094373;28;20028;-61
2022/04/06 09:36:46;;;;;;;0.60;0.52;;;;;;;;;;5093943;28;20016;-61
2022/04/06 09:39:12;;;;;;;1.05;0.60;;;;;;;;;;5094435;28;20151;-61
2022/04/06 09:41:57;;;;;;;0.65;0.65;;;;;;;;;;5093647;28;20028;-61
2022/04/06 09:50:14;;;;;;;0.88;0.60;;;;;;;;;;5094895;28;20056;-61
2022/04/06 09:52:41;;;;;;;2.00;0.50;;;;;;;;;;5087154;28;20020;-61
2022/04/06 09:55:08;;;;;;;0.68;0.50;;;;;;;;;;5093903;28;20035;-61
2022/04/06 09:57:52;;;;;;;1.50;0.65;;;;;;;;;;5093527;28;20107;-62
2022/04/06 10:00:23;;;;;;;0.60;0.60;;;;;;;;;;5094294;28;20060;-61
2022/04/06 10:02:54;;;;;;;1.30;0.77;;;;;;;;;;5093383;28;20457;-62
2022/04/06 10:05:22;;;;;;;1.90;0.75;;;;;;;;;;5093816;28;20047;-61
2022/04/06 10:07:51;;;;;;;1.75;0.50;;;;;;;;;;5092929;28;20024;-61
2022/04/06 10:10:17;;;;;;;1.05;0.63;;;;;;;;;;5094233;28;20032;-61
2022/04/06 10:12:44;;;;;;;1.35;0.75;;;;;;;;;;5093072;28;20032;-61
2022/04/06 10:15:10;;;;;;;3.33;0.65;;;;;;;;;;5093561;28;20081;-61
2022/04/06 10:17:37;;;;;;;0.98;0.60;;;;;;;;;;5092588;28;20020;-61
2022/04/06 10:20:07;;;;;;;0.75;0.75;;;;;;;;;;5094172;28;20040;-61
2022/04/06 10:22:39;;;;;;;1.55;0.90;;;;;;;;;;5094051;28;20121;-62
2022/04/06 10:25:24;;;;;;;0.60;0.47;;;;;;;;;;5096033;28;20098;-61
2022/04/06 10:27:52;;;;;;;0.75;0.50;;;;;;;;;;5092583;28;20024;-62
2022/04/06 10:30:20;;;;;;;1.17;0.80;;;;;;;;;;5092802;28;20066;-62
2022/04/06 10:32:51;;;;;;;1.10;0.45;;;;;;;;;;5074826;28;20035;-62
2022/04/06 10:35:18;;;;;;;1.20;0.55;;;;;;;;;;5087805;28;20050;-62
2022/04/06 10:37:51;;;;;;;1.63;0.57;;;;;;;;;;5093460;28;20422;-61
2022/04/06 10:40:17;;;;;;;2.30;0.60;;;;;;;;;;5091616;28;20024;-62
2022/04/06 10:42:45;;;;;;;1.05;0.50;;;;;;;;;;5091746;28;20028;-62
2022/04/06 10:45:27;;;;;;;1.10;0.63;;;;;;;;;;5093552;28;20060;-62
2022/04/06 10:48:32;;;;;;;1.27;0.55;;;;;;;;;;5092161;28;20039;-62
2022/04/06 10:51:17;;;;;;;1.77;0.55;;;;;;;;;;5049368;28;20025;-61
2022/04/06 10:53:43;;;;;;;1.42;0.50;;;;;;;;;;5049840;28;20401;-62
2022/04/06 10:56:12;;;;;;;3.03;0.60;;;;;;;;;;5050615;28;20128;-63
2022/04/06 10:58:56;;;;;;;0.77;0.40;;;;;;;;;;5049640;28;20036;-62
2022/04/06 11:01:32;;;;;;;1.60;0.50;;;;;;;;;;5050301;28;20052;-62
2022/04/06 11:03:58;;;;;;;0.73;0.60;;;;;;;;;;5049617;28;20036;-62
2022/04/06 11:07:00;;;;;;;0.35;0.35;;;;;;;;;;5050252;28;20029;-62
2022/04/06 11:12:23;;;;;;;1.15;0.50;;;;;;;;;;5050271;28;20040;-62
2022/04/06 11:15:01;;;;;;;1.60;0.40;;;;;;;;;;5032430;28;20139;-62
2022/04/06 11:17:42;;;;;;;0.55;0.38;;;;;;;;;;5049181;28;20411;-62
2022/04/06 11:20:14;;;;;;;0.57;0.40;;;;;;;;;;5050119;28;20135;-62
2022/04/06 11:22:43;;;;;;;0.85;0.60;;;;;;;;;;5087139;28;20778;-62
2022/04/06 11:25:13;;;;;;;0.50;0.50;;;;;;;;;;5092502;28;20040;-62
2022/04/06 11:27:40;;;;;;;0.95;0.50;;;;;;;;;;5092015;28;20048;-62
2022/04/06 11:30:14;;;;;;;0.40;0.25;;;;;;;;;;5074244;28;20361;-62
2022/04/06 11:32:41;;;;;;;1.27;0.50;;;;;;;;;;5091615;28;20115;-62
2022/04/06 11:35:08;;;;;;;0.68;0.40;;;;;;;;;;5091729;28;20063;-62
2022/04/06 11:37:43;;;;;;;0.93;0.35;;;;;;;;;;5090797;28;20473;-62
2022/04/06 11:40:09;;;;;;;0.45;0.32;;;;;;;;;;5092718;28;20043;-62
2022/04/06 11:42:35;;;;;;;0.47;0.40;;;;;;;;;;5091610;28;20481;-62
2022/04/06 11:45:01;;;;;;;0.75;0.50;;;;;;;;;;5091193;28;20024;-62
2022/04/06 11:47:27;;;;;;;0.60;0.60;;;;;;;;;;5091971;28;20366;-63
2022/04/06 11:49:53;;;;;;;0.95;0.60;;;;;;;;;;5091248;28;20111;-62
2022/04/06 11:52:19;;;;;;;0.50;0.40;;;;;;;;;;5091821;28;20038;-62
2022/04/06 11:54:56;;;;;;;0.40;0.40;;;;;;;;;;5091037;28;20027;-62
2022/04/06 11:57:35;;;;;;;0.90;0.50;;;;;;;;;;5091980;28;20027;-62
2022/04/06 12:00:03;;;;;;;1.15;0.52;;;;;;;;;;5090511;28;20054;-62
2022/04/06 12:02:29;;;;;;;3.60;0.60;;;;;;;;;;5092104;28;20028;-62
2022/04/06 12:05:04;;;;;;;0.65;0.52;;;;;;;;;;5090739;28;20031;-62
2022/04/06 12:07:30;;;;;;;0.55;0.50;;;;;;;;;;5090916;28;20028;-62
2022/04/06 12:09:56;;;;;;;1.10;0.60;;;;;;;;;;5090745;28;20028;-61
2022/04/06 12:12:23;;;;;;;0.40;0.30;;;;;;;;;;5091950;28;20028;-62
2022/04/06 12:14:50;;;;;;;1.10;0.47;;;;;;;;;;5090783;28;20027;-61
2022/04/06 12:17:16;;;;;;;0.73;0.50;;;;;;;;;;5091678;28;20602;-62
2022/04/06 12:19:42;;;;;;;0.50;0.40;;;;;;;;;;5090722;28;20083;-61
2022/04/06 12:22:08;;;;;;;0.98;0.50;;;;;;;;;;5091824;28;20024;-61
2022/04/06 12:24:42;;;;;;;1.42;0.70;;;;;;;;;;5091360;28;20458;-61
2022/04/06 12:27:08;;;;;;;0.52;0.40;;;;;;;;;;5086993;28;20426;-62
2022/04/06 12:29:36;;;;;;;0.60;0.50;;;;;;;;;;5091978;28;20020;-62
2022/04/06 12:32:06;;;;;;;0.70;0.40;;;;;;;;;;5090735;28;20274;-62
2022/04/06 12:34:32;;;;;;;0.60;0.45;;;;;;;;;;5084901;28;20026;-61
2022/04/06 12:36:58;;;;;;;1.30;0.47;;;;;;;;;;5090885;28;20020;-61
2022/04/06 12:39:24;;;;;;;0.30;0.30;;;;;;;;;;5091542;28;20048;-61
2022/04/06 12:42:02;;;;;;;0.60;0.40;;;;;;;;;;5090744;28;20095;-62
2022/04/06 12:44:29;;;;;;;0.82;0.38;;;;;;;;;;5090781;28;20412;-62
2022/04/06 12:46:55;;;;;;;0.45;0.40;;;;;;;;;;5089860;28;20417;-61
2022/04/06 12:49:21;;;;;;;0.45;0.40;;;;;;;;;;5091154;28;20111;-61
2022/04/06 12:51:47;;;;;;;0.88;0.20;;;;;;;;;;5091038;28;20027;-61
2022/04/06 12:54:13;;;;;;;0.32;0.25;;;;;;;;;;5092194;28;20066;-61
2022/04/06 12:56:40;;;;;;;0.40;0.38;;;;;;;;;;5095684;28;20465;-61
2022/04/06 12:59:09;;;;;;;0.50;0.30;;;;;;;;;;5095082;28;20084;-61
2022/04/06 13:01:47;;;;;;;0.63;0.47;;;;;;;;;;5092085;28;20027;-61
2022/04/06 13:04:13;;;;;;;14.82;1.23;;;;;;;;;;5071255;28;20092;-61
2022/04/06 13:06:40;;;;;;;0.65;0.65;;;;;;;;;;5086991;28;20047;-62
2022/04/06 13:09:12;;;;;;;0.65;0.28;;;;;;;;;;5076439;28;20400;-62
2022/04/06 13:11:38;;;;;;;0.40;0.30;;;;;;;;;;5095380;28;20115;-62
2022/04/06 13:14:04;;;;;;;1.30;0.50;;;;;;;;;;5093733;28;20063;-62
2022/04/06 13:16:30;;;;;;;0.43;0.30;;;;;;;;;;5094378;28;20056;-62
2022/04/06 13:18:59;;;;;;;1.20;0.52;;;;;;;;;;5093878;28;20054;-62
2022/04/06 13:21:27;;;;;;;0.45;0.30;;;;;;;;;;5094530;28;20028;-62
2022/04/06 13:23:53;;;;;;;1.08;0.30;;;;;;;;;;5093847;28;20428;-62
2022/04/06 13:26:19;;;;;;;0.73;0.55;;;;;;;;;;5094811;28;20078;-62
2022/04/06 13:28:47;;;;;;;0.25;0.22;;;;;;;;;;5093848;28;20070;-61
2022/04/06 13:31:13;;;;;;;0.80;0.35;;;;;;;;;;5094598;28;20413;-61
2022/04/06 13:33:39;;;;;;;0.30;0.30;;;;;;;;;;5094953;28;20024;-61
2022/04/06 13:36:05;;;;;;;1.52;0.40;;;;;;;;;;5093590;28;20020;-62
2022/04/06 13:38:32;;;;;;;1.27;0.30;;;;;;;;;;5094225;28;20040;-61
2022/04/06 13:40:58;;;;;;;1.08;0.30;;;;;;;;;;5093181;28;20018;-63
2022/04/06 13:43:24;;;;;;;3.53;0.45;;;;;;;;;;5094386;28;20536;-65
2022/04/06 13:45:50;;;;;;;3.40;0.40;;;;;;;;;;5093784;28;20028;-66
2022/04/06 13:48:18;;;;;;;6.03;0.90;;;;;;;;;;5094039;28;20029;-65
2022/04/06 13:50:44;;;;;;;2.72;0.60;;;;;;;;;;5093713;28;20106;-64
2022/04/06 13:53:10;;;;;;;2.22;0.45;;;;;;;;;;5093844;28;20020;-68
2022/04/06 13:55:36;;;;;;;5.68;0.52;;;;;;;;;;5094631;28;20465;-65
2022/04/06 13:58:02;;;;;;;7.22;0.50;;;;;;;;;;5093115;28;20024;-60
2022/04/06 14:00:30;;;;;;;4.10;0.50;;;;;;;;;;5093817;28;20058;-61
2022/04/06 14:02:56;;;;;;;7.97;1.58;;;;;;;;;;5092180;28;20046;-60
2022/04/06 14:05:22;;;;;;;17.63;1.42;;;;;;;;;;5093896;28;20031;-61
2022/04/06 14:07:49;;;;;;;3.35;0.68;;;;;;;;;;5073926;28;20031;-60
2022/04/06 14:10:15;;;;;;;2.88;0.60;;;;;;;;;;5093985;28;20373;-65
2022/04/06 14:12:41;;;;;;;2.80;0.95;;;;;;;;;;5093533;28;20023;-61
2022/04/06 14:15:08;;;;;;;2.55;0.60;;;;;;;;;;5092412;28;20053;-60
2022/04/06 14:17:34;;;;;;;1.92;0.57;;;;;;;;;;5093821;28;20043;-61
2022/04/06 14:20:00;;;;;;;3.17;0.90;;;;;;;;;;5093010;28;20031;-61
2022/04/06 14:22:26;;;;;;;2.25;0.57;;;;;;;;;;5093624;28;20030;-61
2022/04/06 14:27:37;;;;;;;2.13;0.57;;;;;;;;;;5093707;28;20051;-60
2022/04/06 14:30:04;;;;;;;2.08;0.60;;;;;;;;;;5092708;28;20121;-61
2022/04/06 14:32:30;;;;;;;2.20;0.65;;;;;;;;;;5093230;28;20031;-61
2022/04/06 14:34:56;;;;;;;2.97;0.40;;;;;;;;;;5092080;28;20032;-60
2022/04/06 14:37:22;;;;;;;1.38;0.57;;;;;;;;;;5093632;28;20094;-61
2022/04/06 14:39:48;;;;;;;0.90;0.40;;;;;;;;;;5091725;28;20048;-61
2022/04/06 14:42:16;;;;;;;2.28;0.50;;;;;;;;;;5092958;28;20385;-61
2022/04/06 14:44:42;;;;;;;1.25;0.52;;;;;;;;;;5093194;28;20099;-61
2022/04/06 14:47:08;;;;;;;2.78;0.50;;;;;;;;;;5091628;28;20115;-61
2022/04/06 14:49:34;;;;;;;2.17;0.45;;;;;;;;;;5093328;28;20128;-62
2022/04/06 14:52:00;;;;;;;2.25;0.50;;;;;;;;;;5092121;28;20065;-61
2022/04/06 14:54:26;;;;;;;0.80;0.40;;;;;;;;;;5093522;28;20024;-62
2022/04/06 14:56:52;;;;;;;2.53;0.40;;;;;;;;;;5092095;28;20028;-60
2022/04/06 14:59:18;;;;;;;1.05;0.40;;;;;;;;;;5093575;28;20028;-60
2022/04/06 15:01:44;;;;;;;1.88;0.50;;;;;;;;;;5092855;28;20024;-60